Time;durP1;ratioP1;P1;durP2;ratioP2;P2;SDS_P1;SDS_P2;PMS_P1;PMS_P2;Temp;Humidity;BMP_temperature;BMP_pressure;BME280_temperature;BME280_humidity;BME280_pressure;Samples;Min_cycle;Max_cycle;Signal;HPM_P1;HPM_P2
2021/12/03 00:01:07;;;;;;;17.48;8.70;;;;;;;1.05;87.64;100908.88;4991118;28;20054;-71
2021/12/03 00:03:34;;;;;;;17.52;8.30;;;;;;;1.02;86.87;100910.00;4994746;28;20042;-71
2021/12/03 00:05:59;;;;;;;18.75;8.38;;;;;;;0.98;87.56;100899.84;4994568;28;20605;-70
2021/12/03 00:08:25;;;;;;;13.95;8.10;;;;;;;0.97;87.27;100900.84;4994316;28;20038;-69
2021/12/03 00:10:57;;;;;;;17.05;8.20;;;;;;;0.95;87.84;100913.47;4994471;28;20061;-69
2021/12/03 00:13:23;;;;;;;13.25;8.18;;;;;;;0.98;87.39;100907.81;4994118;28;20038;-71
2021/12/03 00:15:48;;;;;;;15.77;8.30;;;;;;;0.93;87.93;100900.31;4994435;28;20026;-70
2021/12/03 00:18:14;;;;;;;13.48;8.88;;;;;;;0.96;87.94;100909.84;4994422;28;20105;-68
2021/12/03 00:20:40;;;;;;;16.65;9.35;;;;;;;0.99;88.12;100912.19;4994089;28;20454;-70
2021/12/03 00:23:06;;;;;;;15.55;8.65;;;;;;;0.99;88.12;100906.84;4994528;28;20034;-69
2021/12/03 00:25:32;;;;;;;13.85;9.05;;;;;;;0.97;87.34;100912.34;5013355;28;20042;-69
2021/12/03 00:27:58;;;;;;;17.65;9.27;;;;;;;0.97;87.67;100906.19;5013881;28;20038;-68
2021/12/03 00:30:24;;;;;;;14.98;9.35;;;;;;;0.96;87.96;100909.84;5013295;28;20025;-70
2021/12/03 00:32:49;;;;;;;15.65;9.68;;;;;;;0.94;87.50;100911.84;5013391;28;20365;-69
2021/12/03 00:35:17;;;;;;;19.13;9.77;;;;;;;0.97;87.59;100919.50;5013670;28;20032;-69
2021/12/03 00:37:43;;;;;;;16.63;9.63;;;;;;;0.94;88.11;100912.66;5013118;28;20022;-69
2021/12/03 00:40:15;;;;;;;19.02;10.45;;;;;;;0.95;88.10;100916.16;4998828;28;20034;-70
2021/12/03 00:42:41;;;;;;;;;;;;;;;1.08;87.24;100921.88;4994123;28;20030;-70
2021/12/03 00:45:09;;;;;;;18.13;10.15;;;;;;;1.01;87.86;100913.69;4993253;28;19963;-69
2021/12/03 00:47:35;;;;;;;16.15;10.35;;;;;;;1.01;87.98;100920.84;4993639;28;20026;-70
2021/12/03 00:50:00;;;;;;;19.83;11.30;;;;;;;1.01;87.72;100913.69;4993789;28;20026;-71
2021/12/03 00:52:26;;;;;;;18.30;11.68;;;;;;;0.99;87.58;100909.50;4993272;28;20030;-70
2021/12/03 00:54:52;;;;;;;20.90;11.30;;;;;;;0.99;88.61;100917.50;5007633;28;20038;-69
2021/12/03 00:57:17;;;;;;;20.48;12.10;;;;;;;0.99;87.75;100920.16;5013044;28;20026;-68
2021/12/03 00:59:43;;;;;;;19.42;12.57;;;;;;;0.94;88.31;100925.97;5012955;28;20527;-68
2021/12/03 01:02:08;;;;;;;24.30;12.85;;;;;;;0.94;88.68;100925.16;5009885;28;20046;-70
2021/12/03 01:04:34;;;;;;;22.00;13.23;;;;;;;0.92;88.15;100927.13;5002949;28;20109;-70
2021/12/03 01:07:00;;;;;;;21.65;13.63;;;;;;;0.91;88.32;100928.09;4993607;28;20465;-70
2021/12/03 01:09:25;;;;;;;23.08;14.52;;;;;;;0.88;88.79;100918.63;4993390;28;20026;-68
2021/12/03 01:11:51;;;;;;;25.17;15.10;;;;;;;0.89;88.41;100928.28;4993535;28;20437;-68
2021/12/03 01:14:18;;;;;;;28.45;16.70;;;;;;;0.84;88.77;100928.75;5004056;28;20470;-69
2021/12/03 01:16:43;;;;;;;28.25;17.58;;;;;;;0.84;89.15;100931.41;5012924;28;20042;-69
2021/12/03 01:19:09;;;;;;;25.95;17.35;;;;;;;0.82;89.02;100936.06;5012981;28;20076;-70
2021/12/03 01:21:34;;;;;;;26.27;17.98;;;;;;;0.80;88.86;100922.09;5012561;28;20037;-69
2021/12/03 01:24:00;;;;;;;26.65;16.85;;;;;;;0.81;88.68;100929.06;5013099;28;20117;-69
2021/12/03 01:26:26;;;;;;;26.05;16.40;;;;;;;0.82;89.25;100938.75;5012974;28;20095;-69
2021/12/03 01:28:51;;;;;;;27.48;16.48;;;;;;;0.82;89.35;100937.91;5011973;28;20042;-68
2021/12/03 01:31:17;;;;;;;24.98;15.93;;;;;;;0.80;89.17;100942.56;5012801;28;20520;-68
2021/12/03 01:33:45;;;;;;;25.33;14.77;;;;;;;0.80;89.25;100934.56;5012562;28;20037;-69
2021/12/03 01:36:10;;;;;;;22.33;14.30;;;;;;;0.78;88.86;100939.22;5012378;28;20041;-69
2021/12/03 01:38:36;;;;;;;22.75;14.18;;;;;;;0.78;89.10;100945.38;5012580;28;20109;-69
2021/12/03 01:41:02;;;;;;;26.02;14.90;;;;;;;0.78;89.49;100940.03;5013045;28;20033;-69
2021/12/03 01:43:27;;;;;;;22.35;14.25;;;;;;;0.77;89.75;100940.19;5011608;28;20492;-69
2021/12/03 01:45:58;;;;;;;23.92;14.35;;;;;;;0.77;89.47;100933.06;5012341;28;20042;-71
2021/12/03 01:48:24;;;;;;;24.83;14.33;;;;;;;0.76;89.14;100931.38;5012739;28;20105;-68
2021/12/03 01:50:50;;;;;;;28.80;13.80;;;;;;;0.76;90.01;100926.06;5012494;28;20101;-68
2021/12/03 01:53:18;;;;;;;26.48;14.68;;;;;;;0.78;89.38;100923.25;5012825;28;20029;-70
2021/12/03 01:55:46;;;;;;;27.95;17.15;;;;;;;0.78;89.33;100928.56;5013006;28;20109;-69
2021/12/03 01:58:12;;;;;;;36.50;19.63;;;;;;;0.77;89.88;100922.41;5016267;28;20038;-68
2021/12/03 02:00:46;;;;;;;37.53;22.15;;;;;;;0.76;90.48;100931.38;5001439;28;20089;-69
2021/12/03 02:03:14;;;;;;;35.53;22.65;;;;;;;0.77;90.44;100922.41;4996828;28;20042;-70
2021/12/03 02:05:41;;;;;;;44.05;23.90;;;;;;;0.77;90.63;100926.88;4996662;28;20381;-69
2021/12/03 02:08:07;;;;;;;45.00;25.80;;;;;;;0.80;90.11;100930.09;4996562;28;20109;-70
2021/12/03 02:10:34;;;;;;;45.63;27.05;;;;;;;0.82;90.51;100932.59;4996312;28;20117;-70
2021/12/03 02:12:59;;;;;;;55.00;29.55;;;;;;;0.82;90.72;100935.25;4996391;28;20034;-70
2021/12/03 02:15:25;;;;;;;60.50;30.02;;;;;;;0.83;90.63;100928.91;5014360;28;20034;-68
2021/12/03 02:17:51;;;;;;;63.58;31.63;;;;;;;0.84;90.70;100939.41;5016126;28;20062;-70
2021/12/03 02:20:17;;;;;;;67.45;31.65;;;;;;;0.84;91.06;100951.91;5016228;28;20030;-68
2021/12/03 02:22:43;;;;;;;68.53;33.92;;;;;;;0.85;90.97;100943.75;5015907;28;20037;-69
2021/12/03 02:25:12;;;;;;;70.05;34.42;;;;;;;0.82;91.59;100941.41;5016343;28;20495;-70
2021/12/03 02:27:37;;;;;;;72.30;36.60;;;;;;;0.84;91.49;100939.41;5015756;28;20038;-71
2021/12/03 02:30:05;;;;;;;73.43;33.85;;;;;;;0.81;91.70;100928.25;5014138;28;20473;-68
2021/12/03 02:32:30;;;;;;;60.35;32.40;;;;;;;0.83;91.39;100931.56;5015739;28;20042;-70
2021/12/03 02:34:55;;;;;;;71.30;34.40;;;;;;;0.85;91.21;100929.59;5015798;28;20507;-71
2021/12/03 02:37:21;;;;;;;71.70;33.65;;;;;;;0.86;91.61;100921.44;4998288;28;20469;-70
2021/12/03 02:39:46;;;;;;;66.88;34.50;;;;;;;0.86;91.49;100921.44;5015903;28;20026;-68
2021/12/03 02:42:11;;;;;;;60.80;32.80;;;;;;;0.88;92.34;100927.44;5015769;28;20022;-69
2021/12/03 02:44:38;;;;;;;59.83;31.58;;;;;;;0.90;91.93;100921.13;5012097;28;20042;-70
2021/12/03 02:47:04;;;;;;;56.33;30.33;;;;;;;0.94;91.51;100930.47;5015364;28;20030;-70
2021/12/03 02:49:29;;;;;;;54.33;30.23;;;;;;;0.95;92.49;100919.66;4997724;28;20041;-69
2021/12/03 02:51:55;;;;;;;51.38;28.58;;;;;;;0.98;92.02;100916.69;5015107;28;20022;-69
2021/12/03 02:54:20;;;;;;;52.72;27.08;;;;;;;0.97;92.17;100915.00;5015467;28;20025;-69
2021/12/03 02:56:46;;;;;;;50.20;28.98;;;;;;;0.98;92.02;100911.34;5015312;28;20030;-69
2021/12/03 02:59:11;;;;;;;46.13;27.05;;;;;;;0.97;92.09;100915.00;5015136;28;20045;-70
2021/12/03 03:01:36;;;;;;;46.80;26.38;;;;;;;1.01;91.95;100924.34;5012048;28;20125;-70
2021/12/03 03:04:02;;;;;;;46.42;26.02;;;;;;;1.03;92.13;100921.53;4999615;28;20080;-70
2021/12/03 03:06:28;;;;;;;45.78;25.95;;;;;;;1.01;91.54;100915.50;4995772;28;20045;-73
2021/12/03 03:08:53;;;;;;;46.88;27.25;;;;;;;1.01;91.50;100908.38;4977278;28;20389;-72
2021/12/03 03:11:21;;;;;;;44.15;26.52;;;;;;;1.03;91.86;100910.88;4995712;28;20036;-68
2021/12/03 03:13:47;;;;;;;48.55;27.77;;;;;;;1.02;91.33;100914.53;4995377;28;20034;-69
2021/12/03 03:16:15;;;;;;;49.97;28.50;;;;;;;1.02;91.96;100898.53;4995699;28;20133;-72
2021/12/03 03:18:40;;;;;;;50.78;27.75;;;;;;;1.06;91.75;100894.56;5009460;28;20117;-72
2021/12/03 03:21:05;;;;;;;54.10;29.13;;;;;;;1.10;91.86;100890.53;5015000;28;20109;-70
2021/12/03 03:23:32;;;;;;;59.40;31.27;;;;;;;1.11;92.17;100892.22;5015018;28;20037;-70
2021/12/03 03:25:58;;;;;;;53.25;29.92;;;;;;;1.09;91.48;100899.56;5014785;28;20131;-70
2021/12/03 03:28:24;;;;;;;56.42;31.67;;;;;;;1.04;91.61;100896.53;5014666;28;20030;-70
2021/12/03 03:30:53;;;;;;;56.65;31.55;;;;;;;1.08;91.44;100902.38;5014668;28;20084;-70
2021/12/03 03:33:19;;;;;;;61.35;32.53;;;;;;;1.03;92.36;100900.22;5013601;28;20044;-70
2021/12/03 03:35:45;;;;;;;60.30;32.00;;;;;;;1.05;91.94;100909.69;5013913;28;20117;-69
2021/12/03 03:38:10;;;;;;;53.67;29.67;;;;;;;1.04;92.02;100907.19;5014425;28;20087;-69
2021/12/03 03:40:38;;;;;;;56.22;29.33;;;;;;;1.06;91.98;100903.38;5014218;28;20109;-69
2021/12/03 03:43:04;;;;;;;54.25;30.33;;;;;;;1.07;91.81;100909.53;5014612;28;20084;-69
2021/12/03 03:45:30;;;;;;;56.08;27.85;;;;;;;1.06;91.95;100906.03;4996386;28;20401;-69
2021/12/03 03:47:57;;;;;;;65.05;32.28;;;;;;;1.06;92.22;100898.03;5012998;28;20072;-70
2021/12/03 03:50:23;;;;;;;64.25;31.58;;;;;;;1.09;92.45;100896.88;4997874;28;20114;-69
2021/12/03 03:52:51;;;;;;;66.15;33.53;;;;;;;1.08;91.70;100889.88;4994615;28;20073;-69
2021/12/03 03:55:17;;;;;;;66.30;34.08;;;;;;;1.11;92.25;100897.56;4994894;28;20034;-70
2021/12/03 03:57:44;;;;;;;70.57;34.88;;;;;;;1.14;92.00;100904.41;4994868;28;20042;-70
2021/12/03 04:00:14;;;;;;;79.22;33.53;;;;;;;1.10;92.28;100895.88;4994770;28;20038;-70
2021/12/03 04:02:40;;;;;;;67.35;32.85;;;;;;;1.13;92.39;100892.88;4990900;28;20051;-70
2021/12/03 04:05:07;;;;;;;63.88;31.70;;;;;;;1.16;92.92;100889.06;4994955;28;20030;-69
2021/12/03 04:07:32;;;;;;;62.60;31.42;;;;;;;1.19;92.33;100886.06;4994636;28;20038;-69
2021/12/03 04:09:57;;;;;;;57.28;29.85;;;;;;;1.19;92.55;100881.59;4994759;28;20118;-69
2021/12/03 04:12:22;;;;;;;63.80;30.17;;;;;;;1.19;92.12;100878.94;4994270;28;20026;-70
2021/12/03 04:14:48;;;;;;;57.92;27.15;;;;;;;1.20;92.73;100874.44;4994203;28;20026;-69
2021/12/03 04:17:13;;;;;;;53.50;28.30;;;;;;;1.17;92.82;100864.91;4994419;28;20023;-70
2021/12/03 04:19:38;;;;;;;55.10;27.10;;;;;;;1.18;92.83;100860.44;4993487;28;20022;-69
2021/12/03 04:22:05;;;;;;;52.20;26.10;;;;;;;1.21;93.19;100871.59;5012145;28;20109;-70
2021/12/03 04:24:30;;;;;;;53.10;26.98;;;;;;;1.23;92.39;100880.25;5013635;28;20511;-70
2021/12/03 04:26:55;;;;;;;50.60;28.45;;;;;;;1.20;92.58;100871.75;5013650;28;20103;-69
2021/12/03 04:29:20;;;;;;;49.65;27.38;;;;;;;1.22;92.99;100870.63;5004201;28;20477;-70
2021/12/03 04:31:46;;;;;;;51.15;27.70;;;;;;;1.23;92.39;100872.25;4993992;28;20069;-70
2021/12/03 04:34:12;;;;;;;54.03;28.58;;;;;;;1.26;92.67;100863.13;4994033;28;20034;-71
2021/12/03 04:36:37;;;;;;;47.53;26.33;;;;;;;1.27;92.80;100878.13;4994055;28;20034;-71
2021/12/03 04:39:03;;;;;;;53.63;29.95;;;;;;;1.27;92.69;100866.59;4993799;28;20034;-71
2021/12/03 04:41:28;;;;;;;46.85;27.48;;;;;;;1.30;92.74;100860.94;5009092;28;20037;-71
2021/12/03 04:43:53;;;;;;;48.67;27.90;;;;;;;1.31;92.67;100882.09;5013088;28;20493;-71
2021/12/03 04:46:21;;;;;;;53.17;28.33;;;;;;;1.33;92.60;100897.94;5013350;28;20062;-70
2021/12/03 04:48:46;;;;;;;47.70;27.30;;;;;;;1.30;92.95;100888.44;4995597;28;20030;-70
2021/12/03 04:51:11;;;;;;;53.45;26.92;;;;;;;1.32;92.42;100888.28;4995706;28;20059;-71
2021/12/03 04:53:37;;;;;;;45.50;27.77;;;;;;;1.31;92.73;100873.28;4995721;28;20113;-70
2021/12/03 04:56:03;;;;;;;48.85;27.17;;;;;;;1.36;92.74;100871.81;4999680;28;20045;-71
2021/12/03 04:58:28;;;;;;;45.70;26.48;;;;;;;1.38;92.70;100892.97;4993373;28;20037;-70
2021/12/03 05:00:55;;;;;;;48.78;26.98;;;;;;;1.34;91.96;100875.63;4991060;28;20596;-70
2021/12/03 05:03:24;;;;;;;47.03;25.15;;;;;;;1.34;92.56;100868.44;5012621;28;20123;-70
2021/12/03 05:05:55;;;;;;;44.25;24.40;;;;;;;1.34;92.47;100862.28;5013088;28;20026;-71
2021/12/03 05:08:21;;;;;;;42.15;23.20;;;;;;;1.34;92.58;100856.97;5013309;28;20037;-72
2021/12/03 05:10:48;;;;;;;40.33;21.60;;;;;;;1.37;92.37;100864.63;5012914;28;20041;-71
2021/12/03 05:13:15;;;;;;;37.05;20.05;;;;;;;1.33;92.59;100844.63;5013274;28;20349;-71
2021/12/03 05:15:41;;;;;;;37.28;19.85;;;;;;;1.37;91.92;100860.13;5000811;28;20453;-70
2021/12/03 05:18:09;;;;;;;33.90;18.27;;;;;;;1.35;91.81;100845.31;4993385;28;20069;-71
2021/12/03 05:20:34;;;;;;;32.88;17.65;;;;;;;1.32;91.98;100834.97;4993339;28;20084;-70
2021/12/03 05:23:00;;;;;;;32.78;16.58;;;;;;;1.32;91.95;100840.31;4975740;28;20548;-71
2021/12/03 05:25:27;;;;;;;31.98;16.13;;;;;;;1.29;92.25;100844.13;4993353;28;20073;-71
2021/12/03 05:27:52;;;;;;;30.58;15.45;;;;;;;1.30;92.44;100843.13;4992779;28;20034;-70
2021/12/03 05:30:19;;;;;;;29.65;14.98;;;;;;;1.31;92.61;100834.13;4985807;28;20032;-69
2021/12/03 05:32:44;;;;;;;25.70;13.82;;;;;;;1.33;92.40;100844.63;5012718;28;20099;-71
2021/12/03 05:35:11;;;;;;;27.85;13.88;;;;;;;1.33;92.08;100852.63;5012862;28;20466;-71
2021/12/03 05:37:37;;;;;;;29.13;13.50;;;;;;;1.33;92.22;100861.47;5012670;28;20045;-71
2021/12/03 05:40:04;;;;;;;27.33;13.18;;;;;;;1.31;92.06;100859.94;5012591;28;20038;-71
2021/12/03 05:42:29;;;;;;;23.45;12.45;;;;;;;1.30;92.04;100856.47;5012530;28;20121;-71
2021/12/03 05:44:55;;;;;;;25.88;11.90;;;;;;;1.32;91.55;100848.31;5002283;28;20129;-71
2021/12/03 05:47:21;;;;;;;23.92;11.23;;;;;;;1.31;92.25;100859.94;4993145;28;20038;-71
2021/12/03 05:49:46;;;;;;;26.73;12.35;;;;;;;1.31;92.15;100852.78;4992889;28;20168;-71
2021/12/03 05:52:11;;;;;;;22.08;11.40;;;;;;;1.34;91.60;100864.94;4993052;28;20113;-71
2021/12/03 05:54:37;;;;;;;23.23;10.95;;;;;;;1.34;91.48;100867.63;4993016;28;20031;-71
2021/12/03 05:57:02;;;;;;;22.67;10.50;;;;;;;1.33;91.38;100869.47;4992540;28;20533;-70
2021/12/03 05:59:28;;;;;;;26.77;10.30;;;;;;;1.31;91.52;100860.78;5000570;28;20034;-70
2021/12/03 06:01:53;;;;;;;28.63;10.63;;;;;;;1.29;91.79;100860.13;5008805;28;20046;-70
2021/12/03 06:04:19;;;;;;;23.55;10.50;;;;;;;1.34;91.71;100856.97;5012577;28;20060;-70
2021/12/03 06:06:44;;;;;;;25.88;10.38;;;;;;;1.35;91.44;100855.97;5012414;28;20037;-70
2021/12/03 06:09:09;;;;;;;23.98;10.07;;;;;;;1.33;91.14;100848.13;5012331;28;20104;-70
2021/12/03 06:11:34;;;;;;;22.70;9.40;;;;;;;1.35;91.10;100854.13;5012455;28;20030;-70
2021/12/03 06:14:00;;;;;;;25.85;9.50;;;;;;;1.36;91.29;100858.47;5005948;28;20070;-71
2021/12/03 06:16:25;;;;;;;27.20;9.68;;;;;;;1.34;90.74;100844.44;4992625;28;20039;-71
2021/12/03 06:18:50;;;;;;;27.38;10.07;;;;;;;1.37;91.13;100838.78;4994451;28;20401;-70
2021/12/03 06:21:16;;;;;;;19.40;8.75;;;;;;;1.38;90.64;100843.13;4992561;28;20034;-71
2021/12/03 06:23:42;;;;;;;21.10;9.23;;;;;;;1.35;90.86;100837.31;4992865;28;20030;-70
2021/12/03 06:26:09;;;;;;;22.08;9.52;;;;;;;1.37;90.29;100845.97;4992594;28;20034;-70
2021/12/03 06:28:37;;;;;;;25.00;9.80;;;;;;;1.38;90.62;100839.63;4992486;28;20058;-71
2021/12/03 06:31:03;;;;;;;30.92;9.30;;;;;;;1.37;90.03;100836.13;4975070;28;20034;-72
2021/12/03 06:33:28;;;;;;;23.52;8.35;;;;;;;1.38;90.02;100835.13;4996212;28;20038;-71
2021/12/03 06:35:53;;;;;;;19.50;8.50;;;;;;;1.44;90.24;100844.31;5011839;28;20030;-70
2021/12/03 06:38:19;;;;;;;25.55;9.27;;;;;;;1.42;89.69;100839.16;5012272;28;20025;-71
2021/12/03 06:40:47;;;;;;;21.83;8.82;;;;;;;1.45;89.07;100834.47;5012238;28;20038;-71
2021/12/03 06:43:12;;;;;;;20.13;8.73;;;;;;;1.45;89.00;100842.47;5013321;28;20041;-71
2021/12/03 06:45:38;;;;;;;26.35;8.77;;;;;;;1.43;89.06;100842.63;5015361;28;20046;-71
2021/12/03 06:48:04;;;;;;;19.95;8.52;;;;;;;1.41;88.78;100842.78;5015072;28;20034;-72
2021/12/03 06:50:31;;;;;;;22.75;8.93;;;;;;;1.44;88.18;100846.16;5015343;28;20034;-70
2021/12/03 06:53:04;;;;;;;19.33;8.18;;;;;;;1.40;88.40;100848.28;5015360;28;20030;-71
2021/12/03 06:55:37;;;;;;;23.55;8.38;;;;;;;1.39;88.51;100841.31;5015636;28;20037;-71
2021/12/03 06:58:02;;;;;;;19.95;8.52;;;;;;;1.43;87.92;100847.97;5015327;28;20030;-72
2021/12/03 07:00:28;;;;;;;21.70;9.05;;;;;;;1.45;87.69;100854.00;5009527;28;20520;-71
2021/12/03 07:02:53;;;;;;;21.98;8.00;;;;;;;1.40;87.81;100849.16;5001817;28;20039;-70
2021/12/03 07:05:18;;;;;;;20.67;8.40;;;;;;;1.35;88.09;100854.13;4999098;28;20052;-72
2021/12/03 07:07:45;;;;;;;23.27;8.27;;;;;;;1.35;88.00;100847.97;4995787;28;20117;-71
2021/12/03 07:10:11;;;;;;;26.45;8.25;;;;;;;1.32;87.49;100841.13;4995459;28;20121;-71
2021/12/03 07:12:36;;;;;;;24.58;8.35;;;;;;;1.33;87.60;100841.94;4995682;28;20113;-71
2021/12/03 07:15:02;;;;;;;23.73;7.95;;;;;;;1.34;87.52;100846.28;4995233;28;20126;-71
2021/12/03 07:17:32;;;;;;;29.60;8.23;;;;;;;1.31;87.49;100849.28;4978153;28;20080;-72
2021/12/03 07:19:58;;;;;;;20.77;7.68;;;;;;;1.31;87.73;100838.63;4983323;28;20030;-71
2021/12/03 07:22:24;;;;;;;23.42;7.03;;;;;;;1.34;87.53;100830.28;5014725;28;20039;-72
2021/12/03 07:24:50;;;;;;;22.30;8.18;;;;;;;1.33;86.66;100823.28;5014660;28;20496;-73
2021/12/03 07:27:15;;;;;;;22.40;8.65;;;;;;;1.28;87.18;100815.78;5015024;28;20062;-74
2021/12/03 07:29:42;;;;;;;25.38;7.97;;;;;;;1.32;87.06;100808.31;4996875;28;20452;-71
2021/12/03 07:32:08;;;;;;;23.42;7.03;;;;;;;1.35;87.48;100802.66;4997105;28;20034;-73
2021/12/03 07:34:33;;;;;;;19.33;7.53;;;;;;;1.34;87.62;100808.97;5009642;28;20030;-71
2021/12/03 07:36:58;;;;;;;22.73;7.30;;;;;;;1.37;86.69;100811.28;4994769;28;20508;-71
2021/12/03 07:39:24;;;;;;;25.30;7.93;;;;;;;1.41;86.76;100815.31;4995182;28;20026;-75
2021/12/03 07:41:49;;;;;;;22.95;7.38;;;;;;;1.40;86.30;100813.63;4994978;28;20030;-71
2021/12/03 07:44:14;;;;;;;20.77;7.07;;;;;;;1.42;86.60;100824.97;4977313;28;20409;-78
2021/12/03 07:46:39;;;;;;;24.63;7.15;;;;;;;1.41;86.58;100825.97;4995214;28;20034;-74
2021/12/03 07:49:05;;;;;;;25.23;7.35;;;;;;;1.46;87.14;100826.31;4994464;28;20042;-76
2021/12/03 07:51:30;;;;;;;23.13;6.95;;;;;;;1.48;86.98;100815.47;4976087;28;20043;-73
2021/12/03 07:53:56;;;;;;;26.85;7.43;;;;;;;1.50;87.25;100814.31;5012338;28;20465;-73
2021/12/03 07:56:21;;;;;;;29.73;8.80;;;;;;;1.50;87.40;100811.66;5013792;28;20425;-71
2021/12/03 07:58:46;;;;;;;21.73;6.90;;;;;;;1.55;86.56;100813.81;5014028;28;20436;-75
2021/12/03 08:01:13;;;;;;;27.67;7.13;;;;;;;1.52;86.93;100814.97;5010487;28;20053;-73
2021/12/03 08:03:39;;;;;;;26.80;7.10;;;;;;;1.54;86.97;100818.31;5014204;28;20034;-72
2021/12/03 08:06:08;;;;;;;30.15;7.18;;;;;;;1.50;86.79;100811.66;5013647;28;20120;-72
2021/12/03 08:08:34;;;;;;;20.65;7.50;;;;;;;1.53;87.01;100813.16;5014097;28;20029;-77
2021/12/03 08:11:00;;;;;;;24.17;6.82;;;;;;;1.52;87.21;100814.97;4997899;28;20488;-71
2021/12/03 08:13:25;;;;;;;27.55;6.60;;;;;;;1.56;87.11;100816.31;4994252;28;20530;-73
2021/12/03 08:15:50;;;;;;;25.92;6.95;;;;;;;1.57;86.29;100814.47;4994459;28;20109;-72
2021/12/03 08:18:16;;;;;;;22.60;6.57;;;;;;;1.61;87.33;100809.66;4994022;28;20385;-73
2021/12/03 08:20:41;;;;;;;18.75;6.60;;;;;;;1.64;87.08;100806.66;5006178;28;20058;-72
2021/12/03 08:23:06;;;;;;;24.83;5.90;;;;;;;1.63;87.15;100800.50;5007718;28;20113;-72
2021/12/03 08:25:32;;;;;;;24.98;6.10;;;;;;;1.68;86.48;100807.97;4994200;28;20101;-72
2021/12/03 08:27:58;;;;;;;24.20;7.18;;;;;;;1.69;86.66;100809.63;5009454;28;20378;-72
2021/12/03 08:30:27;;;;;;;27.08;6.72;;;;;;;1.71;87.25;100808.47;5004752;28;20116;-71
2021/12/03 08:32:52;;;;;;;21.58;6.40;;;;;;;1.72;86.30;100814.63;4993863;28;20030;-74
2021/12/03 08:35:17;;;;;;;21.00;6.18;;;;;;;1.74;86.77;100807.31;4993975;28;20033;-72
2021/12/03 08:37:47;;;;;;;23.90;6.38;;;;;;;1.73;86.43;100814.47;4994011;28;20503;-73
2021/12/03 08:40:13;;;;;;;19.17;6.03;;;;;;;1.74;86.68;100808.13;4993717;28;20034;-75
2021/12/03 08:42:38;;;;;;;27.50;6.07;;;;;;;1.72;86.11;100806.63;4993953;28;20030;-75
2021/12/03 08:45:04;;;;;;;17.58;5.75;;;;;;;1.73;86.12;100811.78;4993376;28;20046;-74
2021/12/03 08:47:31;;;;;;;20.80;5.55;;;;;;;1.74;86.89;100816.13;4996036;28;20112;-72
2021/12/03 08:49:57;;;;;;;24.13;6.00;;;;;;;1.76;86.73;100811.47;5012760;28;20025;-78
2021/12/03 08:54:58;;;;;;;20.27;6.22;;;;;;;1.79;86.38;100804.13;5012812;28;20033;-72
2021/12/03 08:57:29;;;;;;;17.98;5.85;;;;;;;1.81;86.72;100786.13;5013210;28;20483;-72
2021/12/03 08:59:57;;;;;;;23.67;6.30;;;;;;;1.82;86.70;100788.63;4995257;28;20381;-70
2021/12/03 09:02:22;;;;;;;22.20;5.95;;;;;;;1.85;87.24;100780.28;5001027;28;20431;-70
2021/12/03 09:04:49;;;;;;;25.90;6.28;;;;;;;1.90;87.18;100785.94;5013015;28;20034;-72
2021/12/03 09:07:15;;;;;;;30.33;6.53;;;;;;;1.97;87.05;100791.44;5012459;28;20061;-73
2021/12/03 09:09:40;;;;;;;28.05;6.35;;;;;;;2.10;88.10;100790.91;4995333;28;20065;-71
2021/12/03 09:12:06;;;;;;;22.33;5.35;;;;;;;2.18;87.11;100801.56;5012774;28;20038;-73
2021/12/03 09:17:13;;;;;;;23.80;6.30;;;;;;;2.32;86.69;100799.19;5003875;28;20104;-75
2021/12/03 09:19:53;;;;;;;23.23;6.47;;;;;;;2.33;86.34;100795.53;4993444;28;20484;-79
2021/12/03 09:22:55;;;;;;;22.13;7.10;;;;;;;2.34;86.30;100795.34;4993238;28;20135;-74
2021/12/03 09:25:15;;;;;;;23.42;6.82;;;;;;;2.38;86.62;100777.13;4989031;28;20058;-76
2021/12/03 09:27:40;;;;;;;23.48;6.63;;;;;;;2.38;85.43;100771.78;4994261;28;20030;-73
2021/12/03 09:30:09;;;;;;;21.88;6.70;;;;;;;2.35;86.31;100778.28;4992523;28;20391;-73
2021/12/03 09:32:35;;;;;;;23.85;6.60;;;;;;;2.41;86.22;100771.44;4984094;28;20018;-75
2021/12/03 09:35:02;;;;;;;20.52;6.20;;;;;;;2.57;87.42;100776.72;5010586;28;20045;-75
2021/12/03 09:37:28;;;;;;;23.48;6.30;;;;;;;2.58;85.62;100777.53;5012489;28;20422;-73
2021/12/03 09:39:55;;;;;;;22.63;7.00;;;;;;;2.62;85.39;100786.88;5007498;28;20156;-74
2021/12/03 09:42:21;;;;;;;24.10;6.68;;;;;;;2.62;85.94;100774.34;5005846;28;20030;-74
2021/12/03 09:44:52;;;;;;;21.60;6.75;;;;;;;2.63;86.01;100778.69;5011606;28;20052;-73
2021/12/03 09:47:19;;;;;;;22.25;6.00;;;;;;;2.69;86.31;100771.81;5000647;28;20381;-73
2021/12/03 09:49:47;;;;;;;22.33;6.07;;;;;;;2.63;86.07;100762.66;5000295;28;20037;-77
2021/12/03 09:52:26;;;;;;;19.33;5.65;;;;;;;2.71;86.83;100760.94;5002743;28;20464;-80
2021/12/03 09:55:11;;;;;;;19.23;5.68;;;;;;;2.61;86.06;100747.78;5002061;28;20045;-76
2021/12/03 09:57:41;;;;;;;19.05;6.20;;;;;;;2.55;86.89;100733.31;4994476;28;20030;-76
2021/12/03 10:00:18;;;;;;;23.77;5.70;;;;;;;2.55;86.46;100744.00;4993814;28;20031;-80
2021/12/03 10:07:12;;;;;;;20.02;5.82;;;;;;;2.53;87.12;100740.66;5012564;28;20088;-80
2021/12/03 10:12:13;;;;;;;19.67;6.10;;;;;;;2.61;87.18;100729.09;5007127;28;20400;-77
2021/12/03 10:17:53;;;;;;;23.10;5.78;;;;;;;2.65;87.38;100727.75;4958902;28;20047;-75
2021/12/03 10:20:33;;;;;;;19.08;5.30;;;;;;;2.63;86.81;100727.09;5015956;28;20029;-76
2021/12/03 10:26:35;;;;;;;18.10;5.30;;;;;;;2.63;87.18;100711.88;5012736;28;20093;-74
2021/12/03 10:32:18;;;;;;;20.00;6.13;;;;;;;2.65;87.11;100685.81;5007976;28;20046;-76
2021/12/03 10:43:33;;;;;;;17.95;6.20;;;;;;;2.79;86.48;100662.00;5015381;28;20037;-72
2021/12/03 10:48:53;;;;;;;19.45;6.65;;;;;;;2.83;86.66;100656.13;5010830;28;20424;-73
2021/12/03 11:02:38;;;;;;;20.95;7.57;;;;;;;3.03;85.47;100614.72;5018427;28;20049;-70
2021/12/03 11:16:46;;;;;;;21.13;7.43;;;;;;;3.17;85.28;100605.88;5035037;28;20033;-71
2021/12/03 11:19:31;;;;;;;22.52;6.85;;;;;;;3.25;85.25;100596.97;5021838;28;20500;-72
2021/12/03 11:25:27;;;;;;;21.00;7.85;;;;;;;3.23;85.33;100591.81;5014698;28;20073;-72
2021/12/03 11:26:02;;;;;;;18.30;6.60;;;;;;;3.25;85.39;100581.75;5029806;28;20041;-71
2021/12/03 11:30:27;;;;;;;20.70;6.85;;;;;;;3.31;85.82;100559.63;5033982;28;20042;-69
2021/12/03 12:07:08;;;;;;;14.38;5.85;;;;;;;3.75;82.96;100511.59;5033599;28;20045;-71
2021/12/03 12:40:18;;;;;;;18.17;5.82;;;;;;;3.89;80.70;100451.81;5013285;28;20133;-71
2021/12/03 12:43:15;;;;;;;9.27;4.22;;;;;;;3.90;80.69;100434.75;5012649;28;20489;-72
2021/12/03 12:58:01;;;;;;;11.75;4.25;;;;;;;3.96;79.37;100414.44;5033000;28;20044;-72
2021/12/03 13:00:21;;;;;;;12.45;4.05;;;;;;;3.94;78.88;100425.31;5021808;28;20107;-73
2021/12/03 13:19:03;;;;;;;7.00;3.47;;;;;;;3.92;78.43;100411.28;5033394;28;20071;-74
2021/12/03 13:32:46;;;;;;;9.50;3.65;;;;;;;3.97;78.57;100382.09;5032166;28;19967;-72
2021/12/03 13:36:07;;;;;;;10.20;5.60;;;;;;;3.93;79.20;100390.72;5035468;28;20039;-73
2021/12/03 14:07:37;;;;;;;7.00;2.75;;;;;;;3.76;82.05;100341.97;4996850;28;20046;-75
2021/12/03 14:40:17;;;;;;;7.30;3.47;;;;;;;3.69;84.44;100332.03;4980289;28;20546;-73
2021/12/03 14:51:00;;;;;;;10.07;3.90;;;;;;;3.64;85.42;100342.50;5034865;28;20119;-76
2021/12/03 14:56:01;;;;;;;7.43;3.20;;;;;;;3.67;85.56;100335.94;5015970;28;20038;-75
2021/12/03 14:59:00;;;;;;;6.07;3.45;;;;;;;3.67;85.68;100328.72;5017403;28;20047;-76
2021/12/03 15:01:58;;;;;;;9.00;3.67;;;;;;;3.68;85.70;100342.91;5022024;28;20103;-75
2021/12/03 15:07:05;;;;;;;7.38;3.40;;;;;;;3.69;85.67;100341.91;5015960;28;20046;-78
2021/12/03 15:09:42;;;;;;;9.82;3.75;;;;;;;3.69;85.48;100342.72;5018354;28;20839;-78
2021/12/03 15:23:14;;;;;;;6.60;3.20;;;;;;;3.75;86.21;100345.69;5034631;28;20055;-79
2021/12/03 15:31:46;;;;;;;6.30;3.00;;;;;;;3.80;86.93;100319.97;4999614;28;20090;-79
2021/12/03 15:36:57;;;;;;;4.25;2.78;;;;;;;3.78;87.25;100323.88;4996289;28;20042;-76
2021/12/03 16:03:29;;;;;;;6.03;2.95;;;;;;;3.62;89.97;100293.66;5022181;28;20072;-73